sensor_id;sensor_type;location;lat;lon;timestamp;P1;durP1;ratioP1;P2;durP2;ratioP2
71176;SDS011;58877;51.992;4.504;2023-03-03T00:01:35;13.27;;;13.15;;
71176;SDS011;58877;51.992;4.504;2023-03-03T00:04:00;13.13;;;13.02;;
71176;SDS011;58877;51.992;4.504;2023-03-03T00:06:26;14.14;;;13.96;;
71176;SDS011;58877;51.992;4.504;2023-03-03T00:08:54;16.04;;;15.58;;
71176;SDS011;58877;51.992;4.504;2023-03-03T00:11:19;16.14;;;15.80;;
71176;SDS011;58877;51.992;4.504;2023-03-03T00:13:49;15.85;;;15.50;;
71176;SDS011;58877;51.992;4.504;2023-03-03T00:16:29;16.81;;;16.09;;
71176;SDS011;58877;51.992;4.504;2023-03-03T00:18:56;16.02;;;15.65;;
71176;SDS011;58877;51.992;4.504;2023-03-03T00:21:42;15.68;;;15.43;;
71176;SDS011;58877;51.992;4.504;2023-03-03T00:24:14;16.64;;;16.24;;
71176;SDS011;58877;51.992;4.504;2023-03-03T00:26:55;16.94;;;16.51;;
71176;SDS011;58877;51.992;4.504;2023-03-03T00:35:16;15.24;;;14.82;;
71176;SDS011;58877;51.992;4.504;2023-03-03T00:37:52;14.87;;;14.56;;
71176;SDS011;58877;51.992;4.504;2023-03-03T00:40:30;14.93;;;14.59;;
71176;SDS011;58877;51.992;4.504;2023-03-03T00:42:59;14.85;;;14.53;;
71176;SDS011;58877;51.992;4.504;2023-03-03T00:45:39;14.96;;;14.65;;
71176;SDS011;58877;51.992;4.504;2023-03-03T00:48:19;16.01;;;15.74;;
71176;SDS011;58877;51.992;4.504;2023-03-03T00:50:54;15.90;;;15.67;;
71176;SDS011;58877;51.992;4.504;2023-03-03T00:53:28;16.11;;;15.82;;
71176;SDS011;58877;51.992;4.504;2023-03-03T00:55:55;16.02;;;15.84;;
71176;SDS011;58877;51.992;4.504;2023-03-03T00:58:22;15.22;;;15.02;;
71176;SDS011;58877;51.992;4.504;2023-03-03T01:00:50;14.99;;;14.80;;
71176;SDS011;58877;51.992;4.504;2023-03-03T01:03:20;15.14;;;14.94;;
71176;SDS011;58877;51.992;4.504;2023-03-03T01:05:48;15.90;;;15.58;;
71176;SDS011;58877;51.992;4.504;2023-03-03T01:08:14;15.06;;;14.69;;
71176;SDS011;58877;51.992;4.504;2023-03-03T01:10:45;16.61;;;15.72;;
71176;SDS011;58877;51.992;4.504;2023-03-03T01:13:17;15.40;;;14.86;;
71176;SDS011;58877;51.992;4.504;2023-03-03T01:15:46;14.61;;;14.14;;
71176;SDS011;58877;51.992;4.504;2023-03-03T01:18:11;14.25;;;13.89;;
71176;SDS011;58877;51.992;4.504;2023-03-03T01:20:38;12.59;;;12.31;;
71176;SDS011;58877;51.992;4.504;2023-03-03T01:23:05;13.17;;;12.86;;
71176;SDS011;58877;51.992;4.504;2023-03-03T01:25:30;13.34;;;13.17;;
71176;SDS011;58877;51.992;4.504;2023-03-03T01:27:57;13.01;;;12.74;;
71176;SDS011;58877;51.992;4.504;2023-03-03T01:30:23;13.96;;;13.71;;
71176;SDS011;58877;51.992;4.504;2023-03-03T01:32:50;12.34;;;12.21;;
71176;SDS011;58877;51.992;4.504;2023-03-03T01:35:16;12.38;;;12.21;;
71176;SDS011;58877;51.992;4.504;2023-03-03T01:37:45;12.00;;;11.89;;
71176;SDS011;58877;51.992;4.504;2023-03-03T01:40:13;11.79;;;11.69;;
71176;SDS011;58877;51.992;4.504;2023-03-03T01:42:42;11.50;;;11.23;;
71176;SDS011;58877;51.992;4.504;2023-03-03T01:48:03;11.73;;;11.58;;
71176;SDS011;58877;51.992;4.504;2023-03-03T01:50:44;11.37;;;11.21;;
71176;SDS011;58877;51.992;4.504;2023-03-03T01:53:38;11.50;;;11.42;;
71176;SDS011;58877;51.992;4.504;2023-03-03T01:56:09;10.32;;;10.25;;
71176;SDS011;58877;51.992;4.504;2023-03-03T01:58:40;10.11;;;10.07;;
71176;SDS011;58877;51.992;4.504;2023-03-03T02:01:18;10.50;;;10.38;;
71176;SDS011;58877;51.992;4.504;2023-03-03T02:03:49;8.95;;;8.86;;
71176;SDS011;58877;51.992;4.504;2023-03-03T02:06:15;9.58;;;9.53;;
71176;SDS011;58877;51.992;4.504;2023-03-03T02:11:31;9.06;;;8.95;;
71176;SDS011;58877;51.992;4.504;2023-03-03T02:14:03;9.23;;;9.04;;
71176;SDS011;58877;51.992;4.504;2023-03-03T02:16:29;8.70;;;8.62;;
71176;SDS011;58877;51.992;4.504;2023-03-03T02:18:55;9.21;;;9.12;;
71176;SDS011;58877;51.992;4.504;2023-03-03T02:21:22;8.77;;;8.67;;
71176;SDS011;58877;51.992;4.504;2023-03-03T02:26:28;8.38;;;8.33;;
71176;SDS011;58877;51.992;4.504;2023-03-03T02:28:56;8.38;;;8.30;;
71176;SDS011;58877;51.992;4.504;2023-03-03T02:31:23;7.86;;;7.82;;
71176;SDS011;58877;51.992;4.504;2023-03-03T02:33:54;8.61;;;8.54;;
71176;SDS011;58877;51.992;4.504;2023-03-03T02:36:24;8.47;;;8.36;;
71176;SDS011;58877;51.992;4.504;2023-03-03T02:44:35;9.24;;;9.12;;
71176;SDS011;58877;51.992;4.504;2023-03-03T02:47:01;9.56;;;9.47;;
71176;SDS011;58877;51.992;4.504;2023-03-03T02:49:29;9.77;;;9.66;;
71176;SDS011;58877;51.992;4.504;2023-03-03T02:51:57;9.76;;;9.65;;
71176;SDS011;58877;51.992;4.504;2023-03-03T02:54:25;9.75;;;9.60;;
71176;SDS011;58877;51.992;4.504;2023-03-03T02:56:52;10.43;;;10.38;;
71176;SDS011;58877;51.992;4.504;2023-03-03T02:59:18;9.72;;;9.71;;
71176;SDS011;58877;51.992;4.504;2023-03-03T03:01:45;9.52;;;9.45;;
71176;SDS011;58877;51.992;4.504;2023-03-03T03:04:12;9.07;;;8.96;;
71176;SDS011;58877;51.992;4.504;2023-03-03T03:06:40;8.58;;;8.52;;
71176;SDS011;58877;51.992;4.504;2023-03-03T03:09:07;8.09;;;8.07;;
71176;SDS011;58877;51.992;4.504;2023-03-03T03:11:34;8.31;;;8.25;;
71176;SDS011;58877;51.992;4.504;2023-03-03T03:14:01;8.23;;;8.20;;
71176;SDS011;58877;51.992;4.504;2023-03-03T03:16:28;8.77;;;8.74;;
71176;SDS011;58877;51.992;4.504;2023-03-03T03:18:53;8.58;;;8.52;;
71176;SDS011;58877;51.992;4.504;2023-03-03T03:21:23;8.21;;;8.12;;
71176;SDS011;58877;51.992;4.504;2023-03-03T03:23:52;9.14;;;8.97;;
71176;SDS011;58877;51.992;4.504;2023-03-03T03:26:18;8.75;;;8.68;;
71176;SDS011;58877;51.992;4.504;2023-03-03T03:28:45;8.11;;;8.09;;
71176;SDS011;58877;51.992;4.504;2023-03-03T03:31:12;8.32;;;8.26;;
71176;SDS011;58877;51.992;4.504;2023-03-03T03:33:39;8.49;;;8.45;;
71176;SDS011;58877;51.992;4.504;2023-03-03T03:36:04;8.96;;;8.94;;
71176;SDS011;58877;51.992;4.504;2023-03-03T03:38:31;8.83;;;8.82;;
71176;SDS011;58877;51.992;4.504;2023-03-03T03:40:57;9.55;;;9.48;;
71176;SDS011;58877;51.992;4.504;2023-03-03T03:43:24;10.25;;;10.12;;
71176;SDS011;58877;51.992;4.504;2023-03-03T03:45:50;10.39;;;10.31;;
71176;SDS011;58877;51.992;4.504;2023-03-03T03:48:15;10.70;;;10.57;;
71176;SDS011;58877;51.992;4.504;2023-03-03T03:50:43;10.25;;;10.15;;
71176;SDS011;58877;51.992;4.504;2023-03-03T03:53:09;10.35;;;10.27;;
71176;SDS011;58877;51.992;4.504;2023-03-03T03:55:35;11.79;;;11.64;;
71176;SDS011;58877;51.992;4.504;2023-03-03T03:58:00;11.02;;;10.93;;
71176;SDS011;58877;51.992;4.504;2023-03-03T04:00:26;11.47;;;11.34;;
71176;SDS011;58877;51.992;4.504;2023-03-03T04:02:52;12.00;;;11.79;;
71176;SDS011;58877;51.992;4.504;2023-03-03T04:05:17;11.42;;;11.31;;
71176;SDS011;58877;51.992;4.504;2023-03-03T04:07:43;11.15;;;11.05;;
71176;SDS011;58877;51.992;4.504;2023-03-03T04:10:09;11.42;;;11.34;;
71176;SDS011;58877;51.992;4.504;2023-03-03T04:12:35;11.67;;;11.58;;
71176;SDS011;58877;51.992;4.504;2023-03-03T04:15:05;11.36;;;11.30;;
71176;SDS011;58877;51.992;4.504;2023-03-03T04:17:32;11.75;;;11.67;;
71176;SDS011;58877;51.992;4.504;2023-03-03T04:19:59;11.87;;;11.73;;
71176;SDS011;58877;51.992;4.504;2023-03-03T04:22:25;11.77;;;11.67;;
71176;SDS011;58877;51.992;4.504;2023-03-03T04:24:50;11.96;;;11.94;;
71176;SDS011;58877;51.992;4.504;2023-03-03T04:27:16;11.85;;;11.76;;
71176;SDS011;58877;51.992;4.504;2023-03-03T04:29:42;11.24;;;11.18;;
71176;SDS011;58877;51.992;4.504;2023-03-03T04:32:08;10.99;;;10.87;;
71176;SDS011;58877;51.992;4.504;2023-03-03T04:34:34;11.70;;;11.53;;
71176;SDS011;58877;51.992;4.504;2023-03-03T04:37:03;11.50;;;11.44;;
71176;SDS011;58877;51.992;4.504;2023-03-03T04:39:28;11.65;;;11.47;;
71176;SDS011;58877;51.992;4.504;2023-03-03T04:41:54;11.92;;;11.81;;
71176;SDS011;58877;51.992;4.504;2023-03-03T04:44:20;11.75;;;11.62;;
71176;SDS011;58877;51.992;4.504;2023-03-03T04:46:46;10.46;;;10.36;;
71176;SDS011;58877;51.992;4.504;2023-03-03T04:49:22;10.87;;;10.79;;
71176;SDS011;58877;51.992;4.504;2023-03-03T04:52:22;10.84;;;10.77;;
71176;SDS011;58877;51.992;4.504;2023-03-03T04:54:48;10.59;;;10.49;;
71176;SDS011;58877;51.992;4.504;2023-03-03T04:57:14;11.00;;;10.89;;
71176;SDS011;58877;51.992;4.504;2023-03-03T04:59:39;10.61;;;10.50;;
71176;SDS011;58877;51.992;4.504;2023-03-03T05:04:33;10.94;;;10.81;;
71176;SDS011;58877;51.992;4.504;2023-03-03T05:06:59;11.50;;;11.42;;
71176;SDS011;58877;51.992;4.504;2023-03-03T05:09:25;10.39;;;10.39;;
71176;SDS011;58877;51.992;4.504;2023-03-03T05:11:50;10.24;;;10.21;;
71176;SDS011;58877;51.992;4.504;2023-03-03T05:14:16;9.65;;;9.60;;
71176;SDS011;58877;51.992;4.504;2023-03-03T05:16:42;9.80;;;9.74;;
71176;SDS011;58877;51.992;4.504;2023-03-03T05:19:07;9.90;;;9.82;;
71176;SDS011;58877;51.992;4.504;2023-03-03T05:21:33;9.84;;;9.73;;
71176;SDS011;58877;51.992;4.504;2023-03-03T05:23:58;9.72;;;9.66;;
71176;SDS011;58877;51.992;4.504;2023-03-03T05:26:24;10.21;;;10.19;;
71176;SDS011;58877;51.992;4.504;2023-03-03T05:28:50;9.68;;;9.59;;
71176;SDS011;58877;51.992;4.504;2023-03-03T05:31:15;9.91;;;9.83;;
71176;SDS011;58877;51.992;4.504;2023-03-03T05:33:41;9.24;;;9.20;;
71176;SDS011;58877;51.992;4.504;2023-03-03T05:36:07;9.84;;;9.78;;
71176;SDS011;58877;51.992;4.504;2023-03-03T05:38:32;9.61;;;9.57;;
71176;SDS011;58877;51.992;4.504;2023-03-03T05:40:58;9.71;;;9.61;;
71176;SDS011;58877;51.992;4.504;2023-03-03T05:43:24;9.17;;;9.12;;
71176;SDS011;58877;51.992;4.504;2023-03-03T05:45:54;9.38;;;9.31;;
71176;SDS011;58877;51.992;4.504;2023-03-03T05:48:20;9.21;;;9.14;;
71176;SDS011;58877;51.992;4.504;2023-03-03T05:50:46;9.24;;;9.19;;
71176;SDS011;58877;51.992;4.504;2023-03-03T05:53:11;9.00;;;8.94;;
71176;SDS011;58877;51.992;4.504;2023-03-03T05:55:37;8.67;;;8.56;;
71176;SDS011;58877;51.992;4.504;2023-03-03T05:58:02;8.96;;;8.85;;
71176;SDS011;58877;51.992;4.504;2023-03-03T06:00:28;9.08;;;8.86;;
71176;SDS011;58877;51.992;4.504;2023-03-03T06:02:54;9.10;;;8.98;;
71176;SDS011;58877;51.992;4.504;2023-03-03T06:05:20;9.14;;;9.10;;
71176;SDS011;58877;51.992;4.504;2023-03-03T06:07:45;8.47;;;8.44;;
71176;SDS011;58877;51.992;4.504;2023-03-03T06:10:15;8.49;;;8.48;;
71176;SDS011;58877;51.992;4.504;2023-03-03T06:12:47;8.67;;;8.63;;
71176;SDS011;58877;51.992;4.504;2023-03-03T06:15:12;7.81;;;7.75;;
71176;SDS011;58877;51.992;4.504;2023-03-03T06:17:38;8.15;;;8.03;;
71176;SDS011;58877;51.992;4.504;2023-03-03T06:20:03;8.16;;;8.08;;
71176;SDS011;58877;51.992;4.504;2023-03-03T06:22:30;8.07;;;8.00;;
71176;SDS011;58877;51.992;4.504;2023-03-03T06:24:55;8.06;;;8.05;;
71176;SDS011;58877;51.992;4.504;2023-03-03T06:27:21;8.79;;;8.78;;
71176;SDS011;58877;51.992;4.504;2023-03-03T06:29:47;7.86;;;7.86;;
71176;SDS011;58877;51.992;4.504;2023-03-03T06:32:13;8.61;;;8.61;;
71176;SDS011;58877;51.992;4.504;2023-03-03T06:34:39;8.52;;;8.51;;
71176;SDS011;58877;51.992;4.504;2023-03-03T06:37:05;8.73;;;8.70;;
71176;SDS011;58877;51.992;4.504;2023-03-03T06:39:31;8.46;;;8.42;;
71176;SDS011;58877;51.992;4.504;2023-03-03T06:41:56;7.98;;;7.96;;
71176;SDS011;58877;51.992;4.504;2023-03-03T06:44:22;7.74;;;7.72;;
71176;SDS011;58877;51.992;4.504;2023-03-03T06:46:48;7.72;;;7.71;;
71176;SDS011;58877;51.992;4.504;2023-03-03T06:49:14;7.22;;;7.22;;
71176;SDS011;58877;51.992;4.504;2023-03-03T06:51:39;7.86;;;7.80;;
71176;SDS011;58877;51.992;4.504;2023-03-03T06:54:15;8.45;;;8.32;;
71176;SDS011;58877;51.992;4.504;2023-03-03T06:56:43;7.71;;;7.64;;
71176;SDS011;58877;51.992;4.504;2023-03-03T06:59:11;7.53;;;7.47;;
71176;SDS011;58877;51.992;4.504;2023-03-03T07:01:42;7.20;;;7.18;;
71176;SDS011;58877;51.992;4.504;2023-03-03T07:04:12;7.39;;;7.38;;
71176;SDS011;58877;51.992;4.504;2023-03-03T07:06:41;7.27;;;7.22;;
71176;SDS011;58877;51.992;4.504;2023-03-03T07:09:26;7.65;;;7.60;;
71176;SDS011;58877;51.992;4.504;2023-03-03T07:11:56;7.18;;;7.16;;
71176;SDS011;58877;51.992;4.504;2023-03-03T07:14:27;7.66;;;7.66;;
71176;SDS011;58877;51.992;4.504;2023-03-03T07:16:59;7.82;;;7.79;;
71176;SDS011;58877;51.992;4.504;2023-03-03T07:19:30;7.05;;;7.02;;
71176;SDS011;58877;51.992;4.504;2023-03-03T07:22:00;7.14;;;7.04;;
71176;SDS011;58877;51.992;4.504;2023-03-03T07:24:48;6.94;;;6.90;;
71176;SDS011;58877;51.992;4.504;2023-03-03T07:27:23;7.05;;;7.05;;
71176;SDS011;58877;51.992;4.504;2023-03-03T07:29:51;7.00;;;7.00;;
71176;SDS011;58877;51.992;4.504;2023-03-03T07:32:31;7.00;;;7.00;;
71176;SDS011;58877;51.992;4.504;2023-03-03T07:35:47;7.57;;;7.57;;
71176;SDS011;58877;51.992;4.504;2023-03-03T07:37:54;7.25;;;7.25;;
71176;SDS011;58877;51.992;4.504;2023-03-03T07:42:59;7.75;;;7.73;;
71176;SDS011;58877;51.992;4.504;2023-03-03T07:45:34;7.22;;;7.19;;
71176;SDS011;58877;51.992;4.504;2023-03-03T07:50:33;7.64;;;7.57;;
71176;SDS011;58877;51.992;4.504;2023-03-03T07:53:07;7.18;;;7.18;;
71176;SDS011;58877;51.992;4.504;2023-03-03T07:55:46;7.03;;;7.03;;
71176;SDS011;58877;51.992;4.504;2023-03-03T08:03:44;7.41;;;7.41;;
71176;SDS011;58877;51.992;4.504;2023-03-03T08:11:42;7.04;;;7.02;;
71176;SDS011;58877;51.992;4.504;2023-03-03T08:14:16;6.92;;;6.85;;
71176;SDS011;58877;51.992;4.504;2023-03-03T08:16:51;6.89;;;6.89;;
71176;SDS011;58877;51.992;4.504;2023-03-03T08:19:17;6.95;;;6.95;;
71176;SDS011;58877;51.992;4.504;2023-03-03T08:21:43;6.47;;;6.47;;
71176;SDS011;58877;51.992;4.504;2023-03-03T08:24:09;6.30;;;6.30;;
71176;SDS011;58877;51.992;4.504;2023-03-03T08:26:35;6.73;;;6.73;;
71176;SDS011;58877;51.992;4.504;2023-03-03T08:29:01;5.64;;;5.64;;
71176;SDS011;58877;51.992;4.504;2023-03-03T08:31:26;6.41;;;6.41;;
71176;SDS011;58877;51.992;4.504;2023-03-03T08:33:55;6.27;;;6.26;;
71176;SDS011;58877;51.992;4.504;2023-03-03T08:36:21;6.43;;;6.42;;
71176;SDS011;58877;51.992;4.504;2023-03-03T08:38:46;7.07;;;7.05;;
71176;SDS011;58877;51.992;4.504;2023-03-03T08:41:12;6.87;;;6.80;;
71176;SDS011;58877;51.992;4.504;2023-03-03T08:43:43;6.45;;;6.43;;
71176;SDS011;58877;51.992;4.504;2023-03-03T08:46:09;6.15;;;6.12;;
71176;SDS011;58877;51.992;4.504;2023-03-03T08:48:36;6.39;;;6.39;;
71176;SDS011;58877;51.992;4.504;2023-03-03T08:51:02;6.17;;;6.17;;
71176;SDS011;58877;51.992;4.504;2023-03-03T08:53:28;7.31;;;7.31;;
71176;SDS011;58877;51.992;4.504;2023-03-03T08:56:00;6.93;;;6.92;;
71176;SDS011;58877;51.992;4.504;2023-03-03T08:58:26;6.63;;;6.63;;
71176;SDS011;58877;51.992;4.504;2023-03-03T09:00:55;6.70;;;6.70;;
71176;SDS011;58877;51.992;4.504;2023-03-03T09:03:23;6.78;;;6.77;;
71176;SDS011;58877;51.992;4.504;2023-03-03T09:05:49;7.09;;;7.04;;
71176;SDS011;58877;51.992;4.504;2023-03-03T09:08:15;7.25;;;7.16;;
71176;SDS011;58877;51.992;4.504;2023-03-03T09:10:41;7.04;;;7.01;;
71176;SDS011;58877;51.992;4.504;2023-03-03T09:13:13;7.08;;;7.06;;
71176;SDS011;58877;51.992;4.504;2023-03-03T09:15:40;6.83;;;6.81;;
71176;SDS011;58877;51.992;4.504;2023-03-03T09:18:20;6.45;;;6.45;;
71176;SDS011;58877;51.992;4.504;2023-03-03T09:20:52;7.30;;;7.30;;
71176;SDS011;58877;51.992;4.504;2023-03-03T09:23:32;6.83;;;6.78;;
71176;SDS011;58877;51.992;4.504;2023-03-03T09:29:17;6.78;;;6.76;;
71176;SDS011;58877;51.992;4.504;2023-03-03T09:31:47;6.89;;;6.89;;
71176;SDS011;58877;51.992;4.504;2023-03-03T09:34:22;6.78;;;6.77;;
71176;SDS011;58877;51.992;4.504;2023-03-03T09:37:00;6.94;;;6.93;;
71176;SDS011;58877;51.992;4.504;2023-03-03T09:39:39;6.63;;;6.63;;
71176;SDS011;58877;51.992;4.504;2023-03-03T09:42:15;7.01;;;7.00;;
71176;SDS011;58877;51.992;4.504;2023-03-03T09:47:59;6.30;;;6.30;;
71176;SDS011;58877;51.992;4.504;2023-03-03T09:53:41;6.05;;;6.00;;
71176;SDS011;58877;51.992;4.504;2023-03-03T09:56:38;6.19;;;6.16;;
71176;SDS011;58877;51.992;4.504;2023-03-03T09:59:17;6.56;;;6.51;;
71176;SDS011;58877;51.992;4.504;2023-03-03T10:12:51;6.39;;;6.39;;
71176;SDS011;58877;51.992;4.504;2023-03-03T10:21:10;6.18;;;6.18;;
71176;SDS011;58877;51.992;4.504;2023-03-03T10:23:55;5.89;;;5.88;;
71176;SDS011;58877;51.992;4.504;2023-03-03T10:29:43;5.75;;;5.75;;
71176;SDS011;58877;51.992;4.504;2023-03-03T10:32:41;5.51;;;5.51;;
71176;SDS011;58877;51.992;4.504;2023-03-03T10:40:49;5.48;;;5.48;;
71176;SDS011;58877;51.992;4.504;2023-03-03T10:57:25;3.51;;;3.51;;
71176;SDS011;58877;51.992;4.504;2023-03-03T11:00:16;3.77;;;3.77;;
71176;SDS011;58877;51.992;4.504;2023-03-03T11:05:52;2.33;;;2.33;;
71176;SDS011;58877;51.992;4.504;2023-03-03T11:08:43;2.43;;;2.42;;
71176;SDS011;58877;51.992;4.504;2023-03-03T11:19:42;2.49;;;2.49;;
71176;SDS011;58877;51.992;4.504;2023-03-03T11:22:57;2.49;;;2.49;;
71176;SDS011;58877;51.992;4.504;2023-03-03T11:28:35;2.22;;;2.22;;
71176;SDS011;58877;51.992;4.504;2023-03-03T11:31:28;2.39;;;2.39;;
71176;SDS011;58877;51.992;4.504;2023-03-03T11:36:43;2.20;;;2.20;;
71176;SDS011;58877;51.992;4.504;2023-03-03T11:39:19;2.28;;;2.28;;
71176;SDS011;58877;51.992;4.504;2023-03-03T11:44:43;1.79;;;1.79;;
71176;SDS011;58877;51.992;4.504;2023-03-03T11:47:52;2.13;;;2.13;;
71176;SDS011;58877;51.992;4.504;2023-03-03T11:53:39;1.78;;;1.78;;
71176;SDS011;58877;51.992;4.504;2023-03-03T11:56:38;1.95;;;1.94;;
71176;SDS011;58877;51.992;4.504;2023-03-03T11:59:18;2.41;;;2.41;;
71176;SDS011;58877;51.992;4.504;2023-03-03T12:02:03;2.69;;;2.67;;
71176;SDS011;58877;51.992;4.504;2023-03-03T12:04:58;2.52;;;2.51;;
71176;SDS011;58877;51.992;4.504;2023-03-03T12:07:31;2.22;;;2.21;;
71176;SDS011;58877;51.992;4.504;2023-03-03T12:10:27;2.30;;;2.29;;
71176;SDS011;58877;51.992;4.504;2023-03-03T12:15:59;2.63;;;2.63;;
71176;SDS011;58877;51.992;4.504;2023-03-03T12:18:41;2.61;;;2.61;;
71176;SDS011;58877;51.992;4.504;2023-03-03T12:21:37;2.03;;;2.03;;
71176;SDS011;58877;51.992;4.504;2023-03-03T12:32:20;1.78;;;1.78;;
71176;SDS011;58877;51.992;4.504;2023-03-03T12:35:26;1.41;;;1.41;;
71176;SDS011;58877;51.992;4.504;2023-03-03T12:40:30;1.73;;;1.72;;
71176;SDS011;58877;51.992;4.504;2023-03-03T12:45:58;1.59;;;1.59;;
71176;SDS011;58877;51.992;4.504;2023-03-03T12:55:04;1.47;;;1.47;;
71176;SDS011;58877;51.992;4.504;2023-03-03T12:58:12;1.58;;;1.58;;
71176;SDS011;58877;51.992;4.504;2023-03-03T13:19:58;2.05;;;2.05;;
71176;SDS011;58877;51.992;4.504;2023-03-03T13:28:01;1.34;;;1.34;;
71176;SDS011;58877;51.992;4.504;2023-03-03T13:30:54;1.63;;;1.63;;
71176;SDS011;58877;51.992;4.504;2023-03-03T13:33:28;1.69;;;1.69;;
71176;SDS011;58877;51.992;4.504;2023-03-03T13:36:04;1.51;;;1.51;;
71176;SDS011;58877;51.992;4.504;2023-03-03T13:38:40;1.40;;;1.40;;
71176;SDS011;58877;51.992;4.504;2023-03-03T13:41:15;1.42;;;1.42;;
71176;SDS011;58877;51.992;4.504;2023-03-03T13:44:00;1.32;;;1.32;;
71176;SDS011;58877;51.992;4.504;2023-03-03T13:52:22;1.48;;;1.48;;
71176;SDS011;58877;51.992;4.504;2023-03-03T13:57:50;1.57;;;1.57;;
71176;SDS011;58877;51.992;4.504;2023-03-03T14:01:01;1.73;;;1.73;;
71176;SDS011;58877;51.992;4.504;2023-03-03T14:06:36;1.62;;;1.62;;
71176;SDS011;58877;51.992;4.504;2023-03-03T14:11:52;1.55;;;1.54;;
71176;SDS011;58877;51.992;4.504;2023-03-03T14:25:01;1.82;;;1.82;;
71176;SDS011;58877;51.992;4.504;2023-03-03T14:27:38;1.77;;;1.77;;
71176;SDS011;58877;51.992;4.504;2023-03-03T14:35:34;1.98;;;1.97;;
71176;SDS011;58877;51.992;4.504;2023-03-03T14:41:12;2.20;;;2.19;;
71176;SDS011;58877;51.992;4.504;2023-03-03T14:43:59;1.95;;;1.92;;
71176;SDS011;58877;51.992;4.504;2023-03-03T14:46:44;2.04;;;2.02;;
71176;SDS011;58877;51.992;4.504;2023-03-03T14:49:14;2.13;;;2.12;;
71176;SDS011;58877;51.992;4.504;2023-03-03T14:52:01;2.49;;;2.49;;
71176;SDS011;58877;51.992;4.504;2023-03-03T14:54:39;2.79;;;2.79;;
71176;SDS011;58877;51.992;4.504;2023-03-03T14:59:54;2.51;;;2.51;;
71176;SDS011;58877;51.992;4.504;2023-03-03T15:07:48;2.48;;;2.48;;
71176;SDS011;58877;51.992;4.504;2023-03-03T15:10:40;2.28;;;2.28;;
71176;SDS011;58877;51.992;4.504;2023-03-03T15:13:11;2.14;;;2.14;;
71176;SDS011;58877;51.992;4.504;2023-03-03T15:19:19;2.12;;;2.09;;
71176;SDS011;58877;51.992;4.504;2023-03-03T15:27:50;1.80;;;1.78;;
71176;SDS011;58877;51.992;4.504;2023-03-03T15:33:26;2.04;;;2.04;;
71176;SDS011;58877;51.992;4.504;2023-03-03T15:36:11;2.17;;;2.17;;
71176;SDS011;58877;51.992;4.504;2023-03-03T15:39:12;1.87;;;1.87;;
71176;SDS011;58877;51.992;4.504;2023-03-03T15:41:47;2.23;;;2.23;;
71176;SDS011;58877;51.992;4.504;2023-03-03T15:44:47;2.57;;;2.57;;
71176;SDS011;58877;51.992;4.504;2023-03-03T15:53:13;3.04;;;3.04;;
71176;SDS011;58877;51.992;4.504;2023-03-03T16:04:00;3.88;;;3.88;;
71176;SDS011;58877;51.992;4.504;2023-03-03T16:11:46;4.08;;;4.08;;
71176;SDS011;58877;51.992;4.504;2023-03-03T16:17:10;3.04;;;3.04;;
71176;SDS011;58877;51.992;4.504;2023-03-03T16:33:36;3.15;;;3.15;;
71176;SDS011;58877;51.992;4.504;2023-03-03T16:36:26;3.04;;;3.03;;
71176;SDS011;58877;51.992;4.504;2023-03-03T16:39:03;2.23;;;2.22;;
71176;SDS011;58877;51.992;4.504;2023-03-03T16:41:41;2.39;;;2.38;;
71176;SDS011;58877;51.992;4.504;2023-03-03T16:49:44;2.15;;;2.08;;
71176;SDS011;58877;51.992;4.504;2023-03-03T16:52:28;2.48;;;2.38;;
71176;SDS011;58877;51.992;4.504;2023-03-03T16:55:14;2.78;;;2.62;;
71176;SDS011;58877;51.992;4.504;2023-03-03T16:58:34;2.38;;;2.21;;
71176;SDS011;58877;51.992;4.504;2023-03-03T17:03:59;2.28;;;2.08;;
71176;SDS011;58877;51.992;4.504;2023-03-03T17:06:36;2.65;;;2.41;;
71176;SDS011;58877;51.992;4.504;2023-03-03T17:19:30;2.17;;;1.89;;
71176;SDS011;58877;51.992;4.504;2023-03-03T17:27:49;1.87;;;1.43;;
71176;SDS011;58877;51.992;4.504;2023-03-03T17:33:30;2.76;;;1.99;;
71176;SDS011;58877;51.992;4.504;2023-03-03T17:41:53;3.00;;;2.12;;
71176;SDS011;58877;51.992;4.504;2023-03-03T17:44:29;2.89;;;1.96;;
71176;SDS011;58877;51.992;4.504;2023-03-03T17:47:14;3.97;;;2.64;;
71176;SDS011;58877;51.992;4.504;2023-03-03T17:50:01;4.28;;;2.88;;
71176;SDS011;58877;51.992;4.504;2023-03-03T17:55:49;4.97;;;3.36;;
71176;SDS011;58877;51.992;4.504;2023-03-03T18:01:45;4.48;;;2.95;;
71176;SDS011;58877;51.992;4.504;2023-03-03T18:04:46;5.06;;;3.29;;
71176;SDS011;58877;51.992;4.504;2023-03-03T18:08:03;5.40;;;3.49;;
71176;SDS011;58877;51.992;4.504;2023-03-03T18:25:03;7.17;;;4.41;;
71176;SDS011;58877;51.992;4.504;2023-03-03T18:27:44;7.33;;;4.58;;
71176;SDS011;58877;51.992;4.504;2023-03-03T18:41:00;5.87;;;3.66;;
71176;SDS011;58877;51.992;4.504;2023-03-03T18:48:46;7.77;;;4.81;;
71176;SDS011;58877;51.992;4.504;2023-03-03T18:54:37;8.44;;;5.20;;
71176;SDS011;58877;51.992;4.504;2023-03-03T18:57:13;7.45;;;4.58;;
71176;SDS011;58877;51.992;4.504;2023-03-03T18:59:48;7.41;;;4.53;;
71176;SDS011;58877;51.992;4.504;2023-03-03T19:02:50;6.48;;;3.98;;
71176;SDS011;58877;51.992;4.504;2023-03-03T19:05:35;6.52;;;3.96;;
71176;SDS011;58877;51.992;4.504;2023-03-03T19:08:44;6.93;;;4.21;;
71176;SDS011;58877;51.992;4.504;2023-03-03T19:11:29;5.94;;;3.65;;
71176;SDS011;58877;51.992;4.504;2023-03-03T19:14:31;6.90;;;4.20;;
71176;SDS011;58877;51.992;4.504;2023-03-03T19:20:13;6.95;;;4.17;;
71176;SDS011;58877;51.992;4.504;2023-03-03T19:23:01;6.56;;;3.97;;
71176;SDS011;58877;51.992;4.504;2023-03-03T19:25:32;7.49;;;4.43;;
71176;SDS011;58877;51.992;4.504;2023-03-03T19:48:20;8.44;;;5.14;;
71176;SDS011;58877;51.992;4.504;2023-03-03T19:56:56;9.50;;;5.71;;
71176;SDS011;58877;51.992;4.504;2023-03-03T19:59:41;7.24;;;4.44;;
71176;SDS011;58877;51.992;4.504;2023-03-03T20:05:12;8.27;;;4.93;;
71176;SDS011;58877;51.992;4.504;2023-03-03T20:08:00;8.18;;;4.89;;
71176;SDS011;58877;51.992;4.504;2023-03-03T20:10:42;9.70;;;5.77;;
71176;SDS011;58877;51.992;4.504;2023-03-03T20:17:09;7.69;;;4.67;;
71176;SDS011;58877;51.992;4.504;2023-03-03T20:22:59;8.46;;;5.19;;
71176;SDS011;58877;51.992;4.504;2023-03-03T20:25:17;8.07;;;4.94;;
71176;SDS011;58877;51.992;4.504;2023-03-03T20:28:35;8.96;;;5.38;;
71176;SDS011;58877;51.992;4.504;2023-03-03T20:31:06;7.74;;;4.68;;
71176;SDS011;58877;51.992;4.504;2023-03-03T20:47:28;8.55;;;5.19;;
71176;SDS011;58877;51.992;4.504;2023-03-03T20:50:08;6.09;;;3.86;;
71176;SDS011;58877;51.992;4.504;2023-03-03T21:00:21;8.77;;;5.57;;
71176;SDS011;58877;51.992;4.504;2023-03-03T21:03:05;7.06;;;4.48;;
71176;SDS011;58877;51.992;4.504;2023-03-03T21:05:37;7.85;;;4.92;;
71176;SDS011;58877;51.992;4.504;2023-03-03T21:08:40;8.36;;;5.26;;
71176;SDS011;58877;51.992;4.504;2023-03-03T21:11:18;7.48;;;4.77;;
71176;SDS011;58877;51.992;4.504;2023-03-03T21:13:48;6.68;;;4.33;;
71176;SDS011;58877;51.992;4.504;2023-03-03T21:21:30;6.56;;;4.18;;
71176;SDS011;58877;51.992;4.504;2023-03-03T21:23:59;8.23;;;5.29;;
71176;SDS011;58877;51.992;4.504;2023-03-03T21:29:18;7.81;;;4.91;;
71176;SDS011;58877;51.992;4.504;2023-03-03T21:32:12;7.85;;;5.03;;
71176;SDS011;58877;51.992;4.504;2023-03-03T21:37:50;6.97;;;4.48;;
71176;SDS011;58877;51.992;4.504;2023-03-03T21:40:28;7.91;;;5.02;;
71176;SDS011;58877;51.992;4.504;2023-03-03T21:42:56;9.08;;;5.71;;
71176;SDS011;58877;51.992;4.504;2023-03-03T21:45:24;7.61;;;4.80;;
71176;SDS011;58877;51.992;4.504;2023-03-03T21:47:51;8.28;;;5.12;;
71176;SDS011;58877;51.992;4.504;2023-03-03T21:50:21;9.44;;;5.78;;
71176;SDS011;58877;51.992;4.504;2023-03-03T21:52:47;9.15;;;5.72;;